Time;durP1;ratioP1;P1;durP2;ratioP2;P2;SDS_P1;SDS_P2;PMS_P1;PMS_P2;Temp;Humidity;BMP_temperature;BMP_pressure;BME280_temperature;BME280_humidity;BME280_pressure;Samples;Min_cycle;Max_cycle;Signal;HPM_P1;HPM_P2
2023/02/07 00:07:45;;;;;;;59.60;28.10;;;;;;;1.38;78.45;102788.14;675776;1264;139607;-82
2023/02/07 00:22:48;;;;;;;67.50;27.80;;;;;;;1.53;78.07;102781.80;673131;1263;140500;-81
2023/02/07 00:37:51;;;;;;;69.40;25.80;;;;;;;1.40;78.51;102800.88;676519;1259;139220;-82
2023/02/07 00:52:54;;;;;;;71.10;29.10;;;;;;;1.26;79.63;102789.65;673575;1260;139557;-81
2023/02/07 01:07:58;;;;;;;58.40;25.70;;;;;;;1.20;80.38;102783.15;673564;1262;139664;-81
2023/02/07 01:23:04;;;;;;;58.80;27.20;;;;;;;1.28;80.40;102773.76;674347;1263;139155;-82
2023/02/07 01:38:08;;;;;;;77.50;36.50;;;;;;;1.44;79.95;102768.79;674447;1259;138807;-81
2023/02/07 01:53:15;;;;;;;46.40;21.30;;;;;;;1.46;79.69;102765.66;675818;1260;139928;-81
2023/02/07 02:08:18;;;;;;;38.90;17.50;;;;;;;1.52;79.15;102766.80;676715;1261;139194;-82
2023/02/07 02:23:57;;;;;;;47.00;20.00;;;;;;;1.62;78.43;102764.98;673967;1262;139321;-82
2023/02/07 02:39:20;;;;;;;45.80;19.20;;;;;;;1.67;78.81;102753.19;675598;1260;139355;-81
2023/02/07 02:54:28;;;;;;;40.30;19.80;;;;;;;1.61;78.40;102753.59;675396;1260;139319;-82
2023/02/07 03:09:58;;;;;;;32.40;15.50;;;;;;;1.63;78.41;102764.44;677192;1259;139780;-82
2023/02/07 03:25:03;;;;;;;34.90;16.50;;;;;;;1.63;78.37;102761.16;674729;1275;139546;-82
2023/02/07 03:40:07;;;;;;;29.60;14.60;;;;;;;1.74;78.20;102755.52;674510;1273;142526;-82
2023/02/07 03:55:12;;;;;;;32.50;15.20;;;;;;;1.53;78.68;102749.54;676409;1259;140187;-82
2023/02/07 04:10:15;;;;;;;43.80;18.60;;;;;;;1.51;79.46;102738.01;678420;1262;139614;-82
2023/02/07 04:25:19;;;;;;;31.20;14.60;;;;;;;1.49;79.87;102740.95;673776;1262;139862;-81
2023/02/07 04:40:24;;;;;;;35.70;16.40;;;;;;;1.37;80.54;102731.26;674962;1262;140442;-82
2023/02/07 04:55:27;;;;;;;42.00;22.20;;;;;;;1.49;80.22;102731.30;677407;1259;140418;-82
2023/02/07 05:10:32;;;;;;;41.30;19.10;;;;;;;1.55;80.61;102734.35;682592;1262;139291;-83
2023/02/07 05:25:35;;;;;;;145.20;50.20;;;;;;;1.61;80.06;102726.86;682511;1262;138972;-83
2023/02/07 05:40:41;;;;;;;301.20;88.50;;;;;;;1.65;80.26;102726.45;682409;1260;139378;-83
2023/02/07 05:55:44;;;;;;;42.10;18.30;;;;;;;1.78;80.33;102734.08;682714;1262;139293;-83
2023/02/07 06:10:48;;;;;;;32.00;16.80;;;;;;;1.83;79.80;102727.63;682656;1259;139031;-83
2023/02/07 06:25:51;;;;;;;52.50;23.80;;;;;;;1.88;79.71;102739.99;682647;1262;139207;-83
2023/02/07 06:40:54;;;;;;;39.20;16.60;;;;;;;2.04;79.83;102753.95;682434;1260;138865;-81
2023/02/07 06:55:57;;;;;;;45.60;19.10;;;;;;;2.19;78.90;102762.73;682491;1262;138138;-83
2023/02/07 07:11:01;;;;;;;79.60;30.90;;;;;;;2.29;78.57;102777.45;682499;1262;138835;-83
2023/02/07 07:26:04;;;;;;;117.80;49.10;;;;;;;2.26;78.79;102803.38;682602;1262;138867;-84
2023/02/07 07:41:08;;;;;;;110.60;46.20;;;;;;;2.35;78.42;102807.59;682343;1262;139422;-83
2023/02/07 07:56:11;;;;;;;79.00;41.50;;;;;;;2.45;78.74;102819.04;682403;1276;139249;-83
2023/02/07 08:11:15;;;;;;;62.70;27.20;;;;;;;2.65;78.21;102824.98;682451;1259;138633;-83
2023/02/07 08:26:18;;;;;;;68.40;30.90;;;;;;;2.82;77.60;102817.48;682776;1259;138807;-83
2023/02/07 08:41:22;;;;;;;36.30;15.30;;;;;;;3.04;76.65;102806.42;682650;1261;139013;-83
2023/02/07 08:56:25;;;;;;;106.20;40.20;;;;;;;3.19;75.68;102795.11;682375;1262;138636;-82
2023/02/07 09:11:28;;;;;;;26.50;14.20;;;;;;;3.55;74.62;102790.13;682293;1262;139428;-82
2023/02/07 09:26:34;;;;;;;197.70;70.30;;;;;;;4.05;73.35;102793.66;682789;1262;139263;-82
2023/02/07 09:41:37;;;;;;;128.10;51.60;;;;;;;4.38;72.71;102786.23;682608;1262;139552;-80
2023/02/07 09:56:40;;;;;;;30.60;14.70;;;;;;;4.44;71.97;102781.59;682602;1262;138973;-81
2023/02/07 10:12:17;;;;;;;44.40;16.40;;;;;;;4.66;70.50;102786.48;682499;1262;139334;-80
2023/02/07 10:27:30;;;;;;;28.80;13.30;;;;;;;4.97;69.31;102797.36;682712;1260;138836;-80
2023/02/07 10:42:37;;;;;;;38.10;14.50;;;;;;;4.89;68.98;102812.80;682657;1262;139673;-80
2023/02/07 10:57:40;;;;;;;27.20;12.20;;;;;;;5.06;68.63;102809.44;682127;1262;139990;-80
2023/02/07 11:12:55;;;;;;;36.60;18.40;;;;;;;5.00;68.22;102797.44;682383;1265;140297;-80
2023/02/07 11:27:58;;;;;;;27.80;12.00;;;;;;;4.90;67.54;102787.48;682189;1265;139012;-79
2023/02/07 11:43:16;;;;;;;67.10;27.50;;;;;;;4.81;67.00;102779.52;682330;1262;139339;-80
2023/02/07 11:58:30;;;;;;;11.80;6.40;;;;;;;4.79;67.31;102775.95;682061;1259;139081;-79
2023/02/07 12:13:49;;;;;;;68.00;30.00;;;;;;;5.01;67.11;102770.73;682318;1263;139033;-79
2023/02/07 12:29:14;;;;;;;141.10;57.80;;;;;;;4.90;66.89;102774.63;682101;1262;140234;-79
2023/02/07 12:44:34;;;;;;;53.00;23.00;;;;;;;4.54;66.72;102780.33;682335;1262;138781;-79
2023/02/07 12:59:41;;;;;;;49.40;19.60;;;;;;;4.34;66.49;102794.45;682210;1262;138996;-79
2023/02/07 13:15:20;;;;;;;77.80;25.80;;;;;;;4.48;66.81;102795.19;682477;1262;139507;-80
2023/02/07 13:30:26;;;;;;;81.20;32.80;;;;;;;4.47;67.00;102794.16;682215;1270;139232;-79
2023/02/07 13:45:37;;;;;;;50.30;21.70;;;;;;;4.48;67.08;102798.66;682427;1262;138804;-79
2023/02/07 14:01:06;;;;;;;22.10;12.00;;;;;;;4.51;66.93;102792.36;682769;1262;138895;-80
2023/02/07 14:16:12;;;;;;;64.90;31.70;;;;;;;4.59;66.66;102798.94;682476;1263;139443;-80
2023/02/07 14:31:21;;;;;;;266.70;123.00;;;;;;;4.44;66.37;102819.36;682472;1263;138756;-80
2023/02/07 14:46:31;;;;;;;32.00;11.80;;;;;;;4.25;66.36;102833.45;682503;1263;139155;-81
2023/02/07 15:01:37;;;;;;;37.40;18.70;;;;;;;4.19;66.05;102826.14;682720;1263;139710;-79
2023/02/07 15:16:40;;;;;;;24.10;11.60;;;;;;;4.05;66.57;102827.80;682611;1260;139243;-80
2023/02/07 15:31:44;;;;;;;43.40;25.20;;;;;;;3.81;66.52;102840.73;682487;1263;138687;-80
2023/02/07 15:47:05;;;;;;;34.10;20.00;;;;;;;3.54;66.71;102847.61;682579;1262;138969;-79
2023/02/07 16:02:19;;;;;;;184.50;70.30;;;;;;;3.50;67.19;102856.33;682757;1263;138804;-80
2023/02/07 16:17:25;;;;;;;358.20;117.60;;;;;;;3.16;67.79;102865.39;682237;1263;139710;-80
2023/02/07 16:32:32;;;;;;;119.70;39.40;;;;;;;3.35;68.22;102871.13;682628;1259;140203;-80
2023/02/07 16:47:36;;;;;;;58.70;25.70;;;;;;;3.41;68.24;102877.45;682057;1264;139205;-80
2023/02/07 17:02:41;;;;;;;94.50;32.50;;;;;;;3.35;68.63;102878.56;682144;1262;139185;-81
2023/02/07 17:17:44;;;;;;;151.60;48.30;;;;;;;3.28;68.84;102886.81;682253;1262;139207;-81
2023/02/07 17:32:48;;;;;;;240.50;75.60;;;;;;;3.39;69.52;102888.88;682498;1262;139354;-81
2023/02/07 17:47:52;;;;;;;34.50;15.10;;;;;;;3.47;69.67;102895.84;682503;1262;139354;-80
2023/02/07 18:02:56;;;;;;;257.00;87.40;;;;;;;3.41;69.71;102911.69;682637;1260;138589;-81
2023/02/07 18:18:00;;;;;;;373.90;158.20;;;;;;;3.43;70.09;102930.34;682368;1263;139565;-81
2023/02/07 18:33:06;;;;;;;41.60;19.30;;;;;;;3.34;70.59;102950.71;682864;1260;139646;-82
2023/02/07 18:48:09;;;;;;;35.90;14.80;;;;;;;3.44;70.59;102953.50;682467;1263;139986;-83
2023/02/07 19:03:14;;;;;;;53.50;21.80;;;;;;;3.36;70.65;102964.52;682347;1262;139344;-82
2023/02/07 19:18:18;;;;;;;244.70;90.40;;;;;;;3.40;71.06;102966.36;682760;1262;139250;-82
2023/02/07 19:33:22;;;;;;;65.60;29.10;;;;;;;3.41;71.03;102961.52;683035;1262;138868;-82
2023/02/07 19:48:27;;;;;;;283.20;97.70;;;;;;;3.27;70.94;102971.58;682561;1260;139686;-83
2023/02/07 20:03:31;;;;;;;35.60;16.80;;;;;;;3.19;71.20;102967.71;682676;1259;139624;-84
2023/02/07 20:18:35;;;;;;;68.00;37.00;;;;;;;3.11;71.47;102969.37;682265;1262;140623;-82
2023/02/07 20:33:39;;;;;;;84.00;30.40;;;;;;;3.18;72.05;102977.08;682631;1262;138983;-82
2023/02/07 20:48:43;;;;;;;160.40;57.70;;;;;;;3.26;71.87;102981.46;682520;1262;138918;-83
2023/02/07 21:03:50;;;;;;;80.60;32.80;;;;;;;3.34;71.79;102995.52;682233;1262;140059;-84
2023/02/07 21:18:54;;;;;;;85.60;35.80;;;;;;;3.19;71.87;103013.37;682269;1262;139366;-83
2023/02/07 21:33:58;;;;;;;93.70;40.40;;;;;;;3.08;71.68;103021.30;682812;1259;140017;-82
2023/02/07 21:49:07;;;;;;;43.50;18.30;;;;;;;3.01;71.88;103037.98;682591;1259;138961;-83
2023/02/07 22:04:13;;;;;;;30.20;15.30;;;;;;;2.88;72.42;103048.68;682624;1262;139715;-83
2023/02/07 22:19:21;;;;;;;60.20;24.70;;;;;;;2.87;72.30;103058.02;682989;1262;139537;-83
2023/02/07 22:34:24;;;;;;;24.40;11.90;;;;;;;2.96;72.38;103065.20;682780;1260;139058;-82
2023/02/07 22:49:28;;;;;;;35.90;16.30;;;;;;;3.00;72.37;103068.78;682607;1260;139338;-82
2023/02/07 23:04:31;;;;;;;30.10;13.60;;;;;;;2.88;72.71;103074.61;682691;1259;139103;-82
2023/02/07 23:19:34;;;;;;;30.50;14.40;;;;;;;2.83;72.93;103088.16;682905;1259;139163;-82
2023/02/07 23:34:38;;;;;;;39.50;17.30;;;;;;;2.81;72.98;103090.42;682355;1260;139225;-82
2023/02/07 23:49:41;;;;;;;28.80;13.00;;;;;;;2.69;73.19;103080.69;682812;1258;139694;-82
